sensor_id;sensor_type;location;lat;lon;timestamp;P1;durP1;ratioP1;P2;durP2;ratioP2
9934;SDS011;5006;41.828;23.478;2022-08-30T00:00:54;15.45;;;12.00;;
9934;SDS011;5006;41.828;23.478;2022-08-30T00:02:06;18.88;;;11.48;;
9934;SDS011;5006;41.828;23.478;2022-08-30T00:03:11;17.35;;;12.27;;
9934;SDS011;5006;41.828;23.478;2022-08-30T00:04:18;19.42;;;12.13;;
9934;SDS011;5006;41.828;23.478;2022-08-30T00:05:23;19.23;;;12.07;;
9934;SDS011;5006;41.828;23.478;2022-08-30T00:06:29;14.88;;;11.32;;
9934;SDS011;5006;41.828;23.478;2022-08-30T00:07:34;15.32;;;11.65;;
9934;SDS011;5006;41.828;23.478;2022-08-30T00:08:41;20.98;;;12.02;;
9934;SDS011;5006;41.828;23.478;2022-08-30T00:09:46;17.42;;;11.93;;
9934;SDS011;5006;41.828;23.478;2022-08-30T00:10:52;17.05;;;11.95;;
9934;SDS011;5006;41.828;23.478;2022-08-30T00:11:58;13.57;;;11.63;;
9934;SDS011;5006;41.828;23.478;2022-08-30T00:13:05;17.35;;;11.98;;
9934;SDS011;5006;41.828;23.478;2022-08-30T00:14:10;14.50;;;12.25;;
9934;SDS011;5006;41.828;23.478;2022-08-30T00:15:17;14.02;;;11.63;;
9934;SDS011;5006;41.828;23.478;2022-08-30T00:16:23;14.45;;;10.95;;
9934;SDS011;5006;41.828;23.478;2022-08-30T00:17:29;18.63;;;11.07;;
9934;SDS011;5006;41.828;23.478;2022-08-30T00:18:35;16.73;;;11.18;;
9934;SDS011;5006;41.828;23.478;2022-08-30T00:19:41;16.70;;;11.90;;
9934;SDS011;5006;41.828;23.478;2022-08-30T00:20:47;14.98;;;11.40;;
9934;SDS011;5006;41.828;23.478;2022-08-30T00:21:54;19.13;;;11.60;;
9934;SDS011;5006;41.828;23.478;2022-08-30T00:22:59;15.43;;;11.60;;
9934;SDS011;5006;41.828;23.478;2022-08-30T00:24:05;15.85;;;11.73;;
9934;SDS011;5006;41.828;23.478;2022-08-30T00:25:11;14.95;;;11.80;;
9934;SDS011;5006;41.828;23.478;2022-08-30T00:26:17;15.00;;;12.00;;
9934;SDS011;5006;41.828;23.478;2022-08-30T00:27:23;18.48;;;11.88;;
9934;SDS011;5006;41.828;23.478;2022-08-30T00:28:29;16.42;;;11.95;;
9934;SDS011;5006;41.828;23.478;2022-08-30T00:29:35;20.98;;;12.88;;
9934;SDS011;5006;41.828;23.478;2022-08-30T00:30:40;17.30;;;12.23;;
9934;SDS011;5006;41.828;23.478;2022-08-30T00:31:47;14.38;;;11.73;;
9934;SDS011;5006;41.828;23.478;2022-08-30T00:32:53;19.20;;;12.30;;
9934;SDS011;5006;41.828;23.478;2022-08-30T00:33:58;18.65;;;12.30;;
9934;SDS011;5006;41.828;23.478;2022-08-30T00:35:05;17.17;;;11.98;;
9934;SDS011;5006;41.828;23.478;2022-08-30T00:36:11;18.60;;;11.68;;
9934;SDS011;5006;41.828;23.478;2022-08-30T00:37:17;17.73;;;11.43;;
9934;SDS011;5006;41.828;23.478;2022-08-30T00:38:23;15.82;;;11.50;;
9934;SDS011;5006;41.828;23.478;2022-08-30T00:39:28;19.23;;;12.10;;
9934;SDS011;5006;41.828;23.478;2022-08-30T00:40:33;20.40;;;12.60;;
9934;SDS011;5006;41.828;23.478;2022-08-30T00:41:39;17.88;;;11.90;;
9934;SDS011;5006;41.828;23.478;2022-08-30T00:42:45;15.95;;;11.32;;
9934;SDS011;5006;41.828;23.478;2022-08-30T00:43:51;20.02;;;12.32;;
9934;SDS011;5006;41.828;23.478;2022-08-30T00:44:57;18.15;;;11.75;;
9934;SDS011;5006;41.828;23.478;2022-08-30T00:46:03;16.80;;;12.43;;
9934;SDS011;5006;41.828;23.478;2022-08-30T00:47:11;16.00;;;11.68;;
9934;SDS011;5006;41.828;23.478;2022-08-30T00:48:17;21.02;;;12.93;;
9934;SDS011;5006;41.828;23.478;2022-08-30T00:49:22;16.95;;;11.73;;
9934;SDS011;5006;41.828;23.478;2022-08-30T00:50:30;14.40;;;12.02;;
9934;SDS011;5006;41.828;23.478;2022-08-30T00:51:38;17.02;;;11.48;;
9934;SDS011;5006;41.828;23.478;2022-08-30T00:52:45;17.35;;;11.30;;
9934;SDS011;5006;41.828;23.478;2022-08-30T00:53:53;19.65;;;11.38;;
9934;SDS011;5006;41.828;23.478;2022-08-30T00:55:02;13.43;;;10.63;;
9934;SDS011;5006;41.828;23.478;2022-08-30T00:56:08;16.90;;;10.60;;
9934;SDS011;5006;41.828;23.478;2022-08-30T00:57:15;15.45;;;10.55;;
9934;SDS011;5006;41.828;23.478;2022-08-30T00:58:24;19.67;;;11.38;;
9934;SDS011;5006;41.828;23.478;2022-08-30T00:59:34;17.38;;;10.63;;
9934;SDS011;5006;41.828;23.478;2022-08-30T01:00:39;11.77;;;9.88;;
9934;SDS011;5006;41.828;23.478;2022-08-30T01:01:45;19.00;;;11.05;;
9934;SDS011;5006;41.828;23.478;2022-08-30T01:02:50;26.40;;;11.15;;
9934;SDS011;5006;41.828;23.478;2022-08-30T01:03:55;17.58;;;10.93;;
9934;SDS011;5006;41.828;23.478;2022-08-30T01:05:01;17.15;;;11.15;;
9934;SDS011;5006;41.828;23.478;2022-08-30T01:06:09;16.38;;;11.13;;
9934;SDS011;5006;41.828;23.478;2022-08-30T01:07:14;14.98;;;10.75;;
9934;SDS011;5006;41.828;23.478;2022-08-30T01:08:20;18.30;;;10.57;;
9934;SDS011;5006;41.828;23.478;2022-08-30T01:09:25;16.55;;;11.10;;
9934;SDS011;5006;41.828;23.478;2022-08-30T01:10:32;13.85;;;10.85;;
9934;SDS011;5006;41.828;23.478;2022-08-30T01:11:37;16.52;;;11.48;;
9934;SDS011;5006;41.828;23.478;2022-08-30T01:12:46;16.45;;;11.23;;
9934;SDS011;5006;41.828;23.478;2022-08-30T01:13:54;21.27;;;12.02;;
9934;SDS011;5006;41.828;23.478;2022-08-30T01:15:01;15.63;;;11.05;;
9934;SDS011;5006;41.828;23.478;2022-08-30T01:16:07;15.48;;;11.88;;
9934;SDS011;5006;41.828;23.478;2022-08-30T01:17:14;20.50;;;12.35;;
9934;SDS011;5006;41.828;23.478;2022-08-30T01:18:22;17.75;;;11.85;;
9934;SDS011;5006;41.828;23.478;2022-08-30T01:19:30;16.33;;;11.88;;
9934;SDS011;5006;41.828;23.478;2022-08-30T01:20:43;16.88;;;12.55;;
9934;SDS011;5006;41.828;23.478;2022-08-30T01:21:53;18.00;;;11.93;;
9934;SDS011;5006;41.828;23.478;2022-08-30T01:23:07;14.30;;;10.95;;
9934;SDS011;5006;41.828;23.478;2022-08-30T01:24:15;16.02;;;11.18;;
9934;SDS011;5006;41.828;23.478;2022-08-30T01:25:27;16.35;;;11.70;;
9934;SDS011;5006;41.828;23.478;2022-08-30T01:26:34;17.30;;;12.35;;
9934;SDS011;5006;41.828;23.478;2022-08-30T01:27:42;20.40;;;11.82;;
9934;SDS011;5006;41.828;23.478;2022-08-30T01:28:55;19.58;;;11.90;;
9934;SDS011;5006;41.828;23.478;2022-08-30T01:30:03;18.95;;;11.75;;
9934;SDS011;5006;41.828;23.478;2022-08-30T01:31:09;21.00;;;11.98;;
9934;SDS011;5006;41.828;23.478;2022-08-30T01:32:16;19.83;;;11.63;;
9934;SDS011;5006;41.828;23.478;2022-08-30T01:33:21;17.13;;;10.23;;
9934;SDS011;5006;41.828;23.478;2022-08-30T01:34:28;16.27;;;10.30;;
9934;SDS011;5006;41.828;23.478;2022-08-30T01:35:34;16.50;;;10.07;;
9934;SDS011;5006;41.828;23.478;2022-08-30T01:36:47;12.98;;;10.45;;
9934;SDS011;5006;41.828;23.478;2022-08-30T01:37:52;15.40;;;10.65;;
9934;SDS011;5006;41.828;23.478;2022-08-30T01:39:00;14.38;;;9.88;;
9934;SDS011;5006;41.828;23.478;2022-08-30T01:40:07;14.88;;;10.57;;
9934;SDS011;5006;41.828;23.478;2022-08-30T01:41:14;14.65;;;10.63;;
9934;SDS011;5006;41.828;23.478;2022-08-30T01:42:22;14.90;;;10.85;;
9934;SDS011;5006;41.828;23.478;2022-08-30T01:43:27;12.90;;;10.40;;
9934;SDS011;5006;41.828;23.478;2022-08-30T01:44:33;16.88;;;10.88;;
9934;SDS011;5006;41.828;23.478;2022-08-30T01:45:38;16.20;;;11.65;;
9934;SDS011;5006;41.828;23.478;2022-08-30T01:46:45;15.38;;;11.25;;
9934;SDS011;5006;41.828;23.478;2022-08-30T01:47:52;17.98;;;11.15;;
9934;SDS011;5006;41.828;23.478;2022-08-30T01:48:56;20.15;;;11.35;;
9934;SDS011;5006;41.828;23.478;2022-08-30T01:50:03;16.00;;;11.40;;
9934;SDS011;5006;41.828;23.478;2022-08-30T01:51:09;13.90;;;11.25;;
9934;SDS011;5006;41.828;23.478;2022-08-30T01:52:16;14.13;;;11.40;;
9934;SDS011;5006;41.828;23.478;2022-08-30T01:53:21;19.30;;;10.98;;
9934;SDS011;5006;41.828;23.478;2022-08-30T01:54:29;17.75;;;11.27;;
9934;SDS011;5006;41.828;23.478;2022-08-30T01:55:36;17.30;;;11.48;;
9934;SDS011;5006;41.828;23.478;2022-08-30T01:56:42;13.27;;;11.35;;
9934;SDS011;5006;41.828;23.478;2022-08-30T01:57:46;16.55;;;11.30;;
9934;SDS011;5006;41.828;23.478;2022-08-30T01:58:52;16.67;;;11.75;;
9934;SDS011;5006;41.828;23.478;2022-08-30T01:59:58;19.17;;;12.20;;
9934;SDS011;5006;41.828;23.478;2022-08-30T02:01:04;14.38;;;11.30;;
9934;SDS011;5006;41.828;23.478;2022-08-30T02:02:12;17.65;;;12.40;;
9934;SDS011;5006;41.828;23.478;2022-08-30T02:03:19;18.08;;;12.73;;
9934;SDS011;5006;41.828;23.478;2022-08-30T02:04:24;18.25;;;13.15;;
9934;SDS011;5006;41.828;23.478;2022-08-30T02:05:30;15.18;;;13.57;;
9934;SDS011;5006;41.828;23.478;2022-08-30T02:06:36;18.33;;;14.00;;
9934;SDS011;5006;41.828;23.478;2022-08-30T02:07:42;18.52;;;14.38;;
9934;SDS011;5006;41.828;23.478;2022-08-30T02:08:47;19.33;;;14.02;;
9934;SDS011;5006;41.828;23.478;2022-08-30T02:09:55;19.58;;;14.65;;
9934;SDS011;5006;41.828;23.478;2022-08-30T02:11:00;18.30;;;13.93;;
9934;SDS011;5006;41.828;23.478;2022-08-30T02:12:06;17.13;;;13.50;;
9934;SDS011;5006;41.828;23.478;2022-08-30T02:13:12;18.20;;;12.85;;
9934;SDS011;5006;41.828;23.478;2022-08-30T02:14:17;17.17;;;13.57;;
9934;SDS011;5006;41.828;23.478;2022-08-30T02:15:22;14.98;;;13.38;;
9934;SDS011;5006;41.828;23.478;2022-08-30T02:16:28;20.52;;;14.05;;
9934;SDS011;5006;41.828;23.478;2022-08-30T02:17:33;14.65;;;13.15;;
9934;SDS011;5006;41.828;23.478;2022-08-30T02:18:38;17.05;;;14.02;;
9934;SDS011;5006;41.828;23.478;2022-08-30T02:19:44;21.75;;;14.77;;
9934;SDS011;5006;41.828;23.478;2022-08-30T02:20:49;15.98;;;13.43;;
9934;SDS011;5006;41.828;23.478;2022-08-30T02:21:54;19.48;;;13.55;;
9934;SDS011;5006;41.828;23.478;2022-08-30T02:23:00;15.88;;;12.80;;
9934;SDS011;5006;41.828;23.478;2022-08-30T02:24:04;18.05;;;13.73;;
9934;SDS011;5006;41.828;23.478;2022-08-30T02:25:12;17.98;;;14.25;;
9934;SDS011;5006;41.828;23.478;2022-08-30T02:26:17;20.75;;;14.15;;
9934;SDS011;5006;41.828;23.478;2022-08-30T02:27:24;20.30;;;13.35;;
9934;SDS011;5006;41.828;23.478;2022-08-30T02:28:30;14.73;;;13.18;;
9934;SDS011;5006;41.828;23.478;2022-08-30T02:29:35;17.48;;;13.07;;
9934;SDS011;5006;41.828;23.478;2022-08-30T02:30:40;17.17;;;13.07;;
9934;SDS011;5006;41.828;23.478;2022-08-30T02:31:46;16.75;;;13.32;;
9934;SDS011;5006;41.828;23.478;2022-08-30T02:32:51;16.27;;;12.65;;
9934;SDS011;5006;41.828;23.478;2022-08-30T02:33:57;19.17;;;13.52;;
9934;SDS011;5006;41.828;23.478;2022-08-30T02:35:04;19.63;;;14.23;;
9934;SDS011;5006;41.828;23.478;2022-08-30T02:36:09;19.77;;;13.38;;
9934;SDS011;5006;41.828;23.478;2022-08-30T02:37:15;20.83;;;13.20;;
9934;SDS011;5006;41.828;23.478;2022-08-30T02:38:21;18.05;;;13.93;;
9934;SDS011;5006;41.828;23.478;2022-08-30T02:39:27;20.42;;;14.15;;
9934;SDS011;5006;41.828;23.478;2022-08-30T02:40:53;18.40;;;14.27;;
9934;SDS011;5006;41.828;23.478;2022-08-30T02:41:59;17.45;;;15.40;;
9934;SDS011;5006;41.828;23.478;2022-08-30T02:43:04;21.38;;;15.48;;
9934;SDS011;5006;41.828;23.478;2022-08-30T02:44:10;17.13;;;15.43;;
9934;SDS011;5006;41.828;23.478;2022-08-30T02:45:15;16.73;;;15.00;;
9934;SDS011;5006;41.828;23.478;2022-08-30T02:46:21;18.83;;;14.18;;
9934;SDS011;5006;41.828;23.478;2022-08-30T02:47:26;16.98;;;15.20;;
9934;SDS011;5006;41.828;23.478;2022-08-30T02:48:32;16.77;;;15.10;;
9934;SDS011;5006;41.828;23.478;2022-08-30T02:49:37;20.67;;;15.35;;
9934;SDS011;5006;41.828;23.478;2022-08-30T02:50:43;21.60;;;15.25;;
9934;SDS011;5006;41.828;23.478;2022-08-30T02:51:49;21.20;;;14.75;;
9934;SDS011;5006;41.828;23.478;2022-08-30T02:52:55;17.77;;;14.10;;
9934;SDS011;5006;41.828;23.478;2022-08-30T02:54:01;21.73;;;14.73;;
9934;SDS011;5006;41.828;23.478;2022-08-30T02:55:07;21.25;;;14.20;;
9934;SDS011;5006;41.828;23.478;2022-08-30T02:56:14;19.05;;;14.63;;
9934;SDS011;5006;41.828;23.478;2022-08-30T02:57:19;21.75;;;15.32;;
9934;SDS011;5006;41.828;23.478;2022-08-30T02:58:26;16.08;;;14.38;;
9934;SDS011;5006;41.828;23.478;2022-08-30T02:59:31;16.02;;;14.32;;
9934;SDS011;5006;41.828;23.478;2022-08-30T03:00:41;20.05;;;14.52;;
9934;SDS011;5006;41.828;23.478;2022-08-30T03:01:47;19.95;;;13.95;;
9934;SDS011;5006;41.828;23.478;2022-08-30T03:02:52;14.52;;;13.13;;
9934;SDS011;5006;41.828;23.478;2022-08-30T03:03:58;16.95;;;13.55;;
9934;SDS011;5006;41.828;23.478;2022-08-30T03:05:03;17.55;;;13.45;;
9934;SDS011;5006;41.828;23.478;2022-08-30T03:06:09;19.80;;;13.32;;
9934;SDS011;5006;41.828;23.478;2022-08-30T03:07:14;15.70;;;13.75;;
9934;SDS011;5006;41.828;23.478;2022-08-30T03:08:20;16.48;;;14.75;;
9934;SDS011;5006;41.828;23.478;2022-08-30T03:09:26;16.92;;;15.10;;
9934;SDS011;5006;41.828;23.478;2022-08-30T03:10:33;19.80;;;15.05;;
9934;SDS011;5006;41.828;23.478;2022-08-30T03:11:39;16.73;;;14.07;;
9934;SDS011;5006;41.828;23.478;2022-08-30T03:12:46;17.67;;;14.05;;
9934;SDS011;5006;41.828;23.478;2022-08-30T03:13:51;15.57;;;13.90;;
9934;SDS011;5006;41.828;23.478;2022-08-30T03:14:57;15.90;;;13.65;;
9934;SDS011;5006;41.828;23.478;2022-08-30T03:16:04;17.08;;;14.02;;
9934;SDS011;5006;41.828;23.478;2022-08-30T03:17:08;15.65;;;14.02;;
9934;SDS011;5006;41.828;23.478;2022-08-30T03:18:15;19.67;;;15.50;;
9934;SDS011;5006;41.828;23.478;2022-08-30T03:19:20;15.35;;;13.75;;
9934;SDS011;5006;41.828;23.478;2022-08-30T03:20:26;19.13;;;14.75;;
9934;SDS011;5006;41.828;23.478;2022-08-30T03:21:31;21.45;;;14.82;;
9934;SDS011;5006;41.828;23.478;2022-08-30T03:22:37;20.42;;;15.07;;
9934;SDS011;5006;41.828;23.478;2022-08-30T03:23:43;17.35;;;15.10;;
9934;SDS011;5006;41.828;23.478;2022-08-30T03:24:49;20.30;;;14.55;;
9934;SDS011;5006;41.828;23.478;2022-08-30T03:25:54;17.85;;;14.88;;
9934;SDS011;5006;41.828;23.478;2022-08-30T03:27:02;20.52;;;14.27;;
9934;SDS011;5006;41.828;23.478;2022-08-30T03:28:06;17.42;;;14.90;;
9934;SDS011;5006;41.828;23.478;2022-08-30T03:29:12;15.27;;;13.55;;
9934;SDS011;5006;41.828;23.478;2022-08-30T03:30:18;16.33;;;13.38;;
9934;SDS011;5006;41.828;23.478;2022-08-30T03:31:24;15.43;;;13.45;;
9934;SDS011;5006;41.828;23.478;2022-08-30T03:32:29;15.65;;;14.05;;
9934;SDS011;5006;41.828;23.478;2022-08-30T03:33:35;20.00;;;15.10;;
9934;SDS011;5006;41.828;23.478;2022-08-30T03:34:43;19.17;;;14.95;;
9934;SDS011;5006;41.828;23.478;2022-08-30T03:35:49;18.70;;;15.15;;
9934;SDS011;5006;41.828;23.478;2022-08-30T03:36:54;18.70;;;14.77;;
9934;SDS011;5006;41.828;23.478;2022-08-30T03:38:01;20.70;;;14.25;;
9934;SDS011;5006;41.828;23.478;2022-08-30T03:39:07;16.88;;;12.98;;
9934;SDS011;5006;41.828;23.478;2022-08-30T03:40:13;17.00;;;12.93;;
9934;SDS011;5006;41.828;23.478;2022-08-30T03:41:20;17.50;;;12.80;;
9934;SDS011;5006;41.828;23.478;2022-08-30T03:42:28;14.50;;;12.95;;
9934;SDS011;5006;41.828;23.478;2022-08-30T03:43:33;21.50;;;14.13;;
9934;SDS011;5006;41.828;23.478;2022-08-30T03:44:58;14.30;;;12.40;;
9934;SDS011;5006;41.828;23.478;2022-08-30T03:46:05;16.25;;;11.75;;
9934;SDS011;5006;41.828;23.478;2022-08-30T03:47:10;19.20;;;12.52;;
9934;SDS011;5006;41.828;23.478;2022-08-30T03:48:16;16.35;;;12.48;;
9934;SDS011;5006;41.828;23.478;2022-08-30T03:49:21;14.60;;;12.27;;
9934;SDS011;5006;41.828;23.478;2022-08-30T03:50:28;15.95;;;12.02;;
9934;SDS011;5006;41.828;23.478;2022-08-30T03:51:35;13.30;;;11.70;;
9934;SDS011;5006;41.828;23.478;2022-08-30T03:52:39;19.05;;;11.80;;
9934;SDS011;5006;41.828;23.478;2022-08-30T03:53:46;16.27;;;12.00;;
9934;SDS011;5006;41.828;23.478;2022-08-30T03:54:51;19.13;;;13.15;;
9934;SDS011;5006;41.828;23.478;2022-08-30T03:55:57;16.40;;;13.30;;
9934;SDS011;5006;41.828;23.478;2022-08-30T03:57:01;16.77;;;13.38;;
9934;SDS011;5006;41.828;23.478;2022-08-30T03:58:09;16.65;;;12.75;;
9934;SDS011;5006;41.828;23.478;2022-08-30T03:59:14;15.40;;;12.30;;
9934;SDS011;5006;41.828;23.478;2022-08-30T04:00:19;16.73;;;13.35;;
9934;SDS011;5006;41.828;23.478;2022-08-30T04:01:24;19.40;;;13.25;;
9934;SDS011;5006;41.828;23.478;2022-08-30T04:02:30;16.60;;;13.52;;
9934;SDS011;5006;41.828;23.478;2022-08-30T04:03:35;14.68;;;13.18;;
9934;SDS011;5006;41.828;23.478;2022-08-30T04:04:41;16.98;;;12.60;;
9934;SDS011;5006;41.828;23.478;2022-08-30T04:05:46;15.38;;;13.25;;
9934;SDS011;5006;41.828;23.478;2022-08-30T04:06:52;17.10;;;12.43;;
9934;SDS011;5006;41.828;23.478;2022-08-30T04:07:57;15.48;;;13.25;;
9934;SDS011;5006;41.828;23.478;2022-08-30T04:09:03;16.77;;;13.63;;
9934;SDS011;5006;41.828;23.478;2022-08-30T04:10:09;19.00;;;13.35;;
9934;SDS011;5006;41.828;23.478;2022-08-30T04:11:15;15.73;;;14.13;;
9934;SDS011;5006;41.828;23.478;2022-08-30T04:12:20;15.40;;;13.80;;
9934;SDS011;5006;41.828;23.478;2022-08-30T04:13:27;19.02;;;14.93;;
9934;SDS011;5006;41.828;23.478;2022-08-30T04:14:33;16.13;;;14.13;;
9934;SDS011;5006;41.828;23.478;2022-08-30T04:15:39;16.45;;;13.60;;
9934;SDS011;5006;41.828;23.478;2022-08-30T04:16:44;20.10;;;14.73;;
9934;SDS011;5006;41.828;23.478;2022-08-30T04:17:49;16.35;;;14.25;;
9934;SDS011;5006;41.828;23.478;2022-08-30T04:18:55;17.90;;;13.40;;
9934;SDS011;5006;41.828;23.478;2022-08-30T04:20:01;17.38;;;13.27;;
9934;SDS011;5006;41.828;23.478;2022-08-30T04:21:08;16.67;;;13.77;;
9934;SDS011;5006;41.828;23.478;2022-08-30T04:22:12;16.45;;;13.88;;
9934;SDS011;5006;41.828;23.478;2022-08-30T04:23:18;19.15;;;15.23;;
9934;SDS011;5006;41.828;23.478;2022-08-30T04:24:23;18.63;;;16.02;;
9934;SDS011;5006;41.828;23.478;2022-08-30T04:25:29;18.67;;;14.75;;
9934;SDS011;5006;41.828;23.478;2022-08-30T04:26:34;18.48;;;14.77;;
9934;SDS011;5006;41.828;23.478;2022-08-30T04:27:41;16.85;;;15.02;;
9934;SDS011;5006;41.828;23.478;2022-08-30T04:28:47;19.60;;;15.85;;
9934;SDS011;5006;41.828;23.478;2022-08-30T04:29:53;20.73;;;15.88;;
9934;SDS011;5006;41.828;23.478;2022-08-30T04:30:59;17.02;;;14.45;;
9934;SDS011;5006;41.828;23.478;2022-08-30T04:32:06;16.65;;;14.48;;
9934;SDS011;5006;41.828;23.478;2022-08-30T04:33:11;17.80;;;14.95;;
9934;SDS011;5006;41.828;23.478;2022-08-30T04:34:18;16.38;;;14.35;;
9934;SDS011;5006;41.828;23.478;2022-08-30T04:35:23;16.92;;;15.02;;
9934;SDS011;5006;41.828;23.478;2022-08-30T04:36:29;17.50;;;14.13;;
9934;SDS011;5006;41.828;23.478;2022-08-30T04:37:34;16.85;;;14.10;;
9934;SDS011;5006;41.828;23.478;2022-08-30T04:38:42;16.80;;;14.18;;
9934;SDS011;5006;41.828;23.478;2022-08-30T04:39:47;18.48;;;14.93;;
9934;SDS011;5006;41.828;23.478;2022-08-30T04:40:53;19.58;;;13.98;;
9934;SDS011;5006;41.828;23.478;2022-08-30T04:41:58;17.90;;;14.70;;
9934;SDS011;5006;41.828;23.478;2022-08-30T04:43:04;17.48;;;14.60;;
9934;SDS011;5006;41.828;23.478;2022-08-30T04:44:10;18.08;;;14.73;;
9934;SDS011;5006;41.828;23.478;2022-08-30T04:45:16;16.35;;;14.23;;
9934;SDS011;5006;41.828;23.478;2022-08-30T04:46:21;18.83;;;14.70;;
9934;SDS011;5006;41.828;23.478;2022-08-30T04:47:26;18.85;;;14.50;;
9934;SDS011;5006;41.828;23.478;2022-08-30T04:48:32;20.13;;;14.68;;
9934;SDS011;5006;41.828;23.478;2022-08-30T04:49:38;18.05;;;15.05;;
9934;SDS011;5006;41.828;23.478;2022-08-30T04:50:43;24.27;;;17.55;;
9934;SDS011;5006;41.828;23.478;2022-08-30T04:51:49;20.55;;;16.05;;
9934;SDS011;5006;41.828;23.478;2022-08-30T04:52:54;20.38;;;17.08;;
9934;SDS011;5006;41.828;23.478;2022-08-30T04:54:00;20.67;;;16.02;;
9934;SDS011;5006;41.828;23.478;2022-08-30T04:55:05;19.38;;;15.70;;
9934;SDS011;5006;41.828;23.478;2022-08-30T04:56:15;16.75;;;15.00;;
9934;SDS011;5006;41.828;23.478;2022-08-30T04:57:21;16.67;;;14.68;;
9934;SDS011;5006;41.828;23.478;2022-08-30T04:58:28;18.73;;;15.38;;
9934;SDS011;5006;41.828;23.478;2022-08-30T04:59:35;16.30;;;14.63;;
9934;SDS011;5006;41.828;23.478;2022-08-30T05:00:43;18.27;;;15.15;;
9934;SDS011;5006;41.828;23.478;2022-08-30T05:01:48;18.58;;;15.85;;
9934;SDS011;5006;41.828;23.478;2022-08-30T05:02:53;24.52;;;15.52;;
9934;SDS011;5006;41.828;23.478;2022-08-30T05:03:58;17.73;;;15.77;;
9934;SDS011;5006;41.828;23.478;2022-08-30T05:05:05;18.08;;;15.55;;
9934;SDS011;5006;41.828;23.478;2022-08-30T05:06:29;20.95;;;15.80;;
9934;SDS011;5006;41.828;23.478;2022-08-30T05:07:37;17.52;;;15.40;;
9934;SDS011;5006;41.828;23.478;2022-08-30T05:08:42;20.05;;;16.02;;
9934;SDS011;5006;41.828;23.478;2022-08-30T05:09:49;18.83;;;15.93;;
9934;SDS011;5006;41.828;23.478;2022-08-30T05:10:54;21.77;;;16.63;;
9934;SDS011;5006;41.828;23.478;2022-08-30T05:11:59;19.80;;;16.52;;
9934;SDS011;5006;41.828;23.478;2022-08-30T05:13:04;16.88;;;14.88;;
9934;SDS011;5006;41.828;23.478;2022-08-30T05:14:10;20.08;;;15.65;;
9934;SDS011;5006;41.828;23.478;2022-08-30T05:15:17;18.33;;;15.48;;
9934;SDS011;5006;41.828;23.478;2022-08-30T05:16:22;23.05;;;15.65;;
9934;SDS011;5006;41.828;23.478;2022-08-30T05:17:27;19.85;;;16.15;;
9934;SDS011;5006;41.828;23.478;2022-08-30T05:18:33;21.27;;;16.58;;
9934;SDS011;5006;41.828;23.478;2022-08-30T05:19:38;20.55;;;15.63;;
9934;SDS011;5006;41.828;23.478;2022-08-30T05:20:44;16.45;;;14.65;;
9934;SDS011;5006;41.828;23.478;2022-08-30T05:22:09;20.50;;;14.73;;
9934;SDS011;5006;41.828;23.478;2022-08-30T05:23:15;20.92;;;14.32;;
9934;SDS011;5006;41.828;23.478;2022-08-30T05:24:19;18.77;;;14.77;;
9934;SDS011;5006;41.828;23.478;2022-08-30T05:25:26;15.02;;;13.48;;
9934;SDS011;5006;41.828;23.478;2022-08-30T05:26:32;14.63;;;13.05;;
9934;SDS011;5006;41.828;23.478;2022-08-30T05:27:41;17.67;;;14.15;;
9934;SDS011;5006;41.828;23.478;2022-08-30T05:28:46;20.65;;;13.82;;
9934;SDS011;5006;41.828;23.478;2022-08-30T05:29:52;19.23;;;13.27;;
9934;SDS011;5006;41.828;23.478;2022-08-30T05:31:00;19.85;;;14.35;;
9934;SDS011;5006;41.828;23.478;2022-08-30T05:32:07;16.70;;;13.82;;
9934;SDS011;5006;41.828;23.478;2022-08-30T05:33:12;18.00;;;13.27;;
9934;SDS011;5006;41.828;23.478;2022-08-30T05:34:18;15.82;;;13.30;;
9934;SDS011;5006;41.828;23.478;2022-08-30T05:35:23;18.48;;;13.27;;
9934;SDS011;5006;41.828;23.478;2022-08-30T05:36:31;20.05;;;13.30;;
9934;SDS011;5006;41.828;23.478;2022-08-30T05:37:39;15.77;;;13.85;;
9934;SDS011;5006;41.828;23.478;2022-08-30T05:38:44;15.55;;;13.75;;
9934;SDS011;5006;41.828;23.478;2022-08-30T05:39:50;17.50;;;13.80;;
9934;SDS011;5006;41.828;23.478;2022-08-30T05:40:55;20.60;;;13.23;;
9934;SDS011;5006;41.828;23.478;2022-08-30T05:42:01;23.83;;;13.43;;
9934;SDS011;5006;41.828;23.478;2022-08-30T05:43:07;21.38;;;13.75;;
9934;SDS011;5006;41.828;23.478;2022-08-30T05:44:14;15.93;;;14.32;;
9934;SDS011;5006;41.828;23.478;2022-08-30T05:45:21;20.05;;;15.85;;
9934;SDS011;5006;41.828;23.478;2022-08-30T05:46:28;20.08;;;15.23;;
9934;SDS011;5006;41.828;23.478;2022-08-30T05:47:36;19.98;;;16.08;;
9934;SDS011;5006;41.828;23.478;2022-08-30T05:48:41;19.40;;;16.30;;
9934;SDS011;5006;41.828;23.478;2022-08-30T05:49:47;21.00;;;18.55;;
9934;SDS011;5006;41.828;23.478;2022-08-30T05:51:00;21.92;;;18.33;;
9934;SDS011;5006;41.828;23.478;2022-08-30T05:52:07;22.00;;;18.38;;
9934;SDS011;5006;41.828;23.478;2022-08-30T05:53:12;20.83;;;17.48;;
9934;SDS011;5006;41.828;23.478;2022-08-30T05:54:17;21.85;;;16.48;;
9934;SDS011;5006;41.828;23.478;2022-08-30T05:55:22;20.92;;;15.43;;
9934;SDS011;5006;41.828;23.478;2022-08-30T05:56:29;24.88;;;17.38;;
9934;SDS011;5006;41.828;23.478;2022-08-30T05:57:37;21.45;;;16.35;;
9934;SDS011;5006;41.828;23.478;2022-08-30T05:58:43;26.08;;;16.55;;
9934;SDS011;5006;41.828;23.478;2022-08-30T05:59:48;21.08;;;15.85;;
9934;SDS011;5006;41.828;23.478;2022-08-30T06:00:54;23.10;;;17.73;;
9934;SDS011;5006;41.828;23.478;2022-08-30T06:02:00;29.17;;;20.33;;
9934;SDS011;5006;41.828;23.478;2022-08-30T06:03:06;40.92;;;35.80;;
9934;SDS011;5006;41.828;23.478;2022-08-30T06:04:15;31.20;;;27.52;;
9934;SDS011;5006;41.828;23.478;2022-08-30T06:05:21;31.65;;;28.33;;
9934;SDS011;5006;41.828;23.478;2022-08-30T06:06:26;36.77;;;32.90;;
9934;SDS011;5006;41.828;23.478;2022-08-30T06:07:33;52.57;;;46.80;;
9934;SDS011;5006;41.828;23.478;2022-08-30T06:08:38;63.03;;;56.27;;
9934;SDS011;5006;41.828;23.478;2022-08-30T06:10:02;67.63;;;60.47;;
9934;SDS011;5006;41.828;23.478;2022-08-30T06:11:10;64.03;;;57.13;;
9934;SDS011;5006;41.828;23.478;2022-08-30T06:12:16;54.20;;;48.50;;
9934;SDS011;5006;41.828;23.478;2022-08-30T06:13:21;48.03;;;42.83;;
9934;SDS011;5006;41.828;23.478;2022-08-30T06:14:26;41.10;;;36.67;;
9934;SDS011;5006;41.828;23.478;2022-08-30T06:15:31;38.43;;;31.40;;
9934;SDS011;5006;41.828;23.478;2022-08-30T06:16:38;32.20;;;28.83;;
9934;SDS011;5006;41.828;23.478;2022-08-30T06:17:47;31.23;;;25.97;;
9934;SDS011;5006;41.828;23.478;2022-08-30T06:18:54;28.37;;;25.37;;
9934;SDS011;5006;41.828;23.478;2022-08-30T06:20:06;27.10;;;24.25;;
9934;SDS011;5006;41.828;23.478;2022-08-30T06:21:14;25.73;;;21.90;;
9934;SDS011;5006;41.828;23.478;2022-08-30T06:22:23;25.60;;;22.13;;
9934;SDS011;5006;41.828;23.478;2022-08-30T06:23:29;25.30;;;21.53;;
9934;SDS011;5006;41.828;23.478;2022-08-30T06:24:37;25.27;;;21.37;;
9934;SDS011;5006;41.828;23.478;2022-08-30T06:25:44;25.27;;;20.97;;
9934;SDS011;5006;41.828;23.478;2022-08-30T06:26:51;23.65;;;20.10;;
9934;SDS011;5006;41.828;23.478;2022-08-30T06:27:58;22.17;;;20.03;;
9934;SDS011;5006;41.828;23.478;2022-08-30T06:29:06;22.70;;;20.38;;
9934;SDS011;5006;41.828;23.478;2022-08-30T06:30:16;23.30;;;20.80;;
9934;SDS011;5006;41.828;23.478;2022-08-30T06:31:22;24.48;;;21.55;;
9934;SDS011;5006;41.828;23.478;2022-08-30T06:32:40;22.13;;;19.92;;
9934;SDS011;5006;41.828;23.478;2022-08-30T06:33:48;23.93;;;21.27;;
9934;SDS011;5006;41.828;23.478;2022-08-30T06:34:53;22.60;;;20.38;;
9934;SDS011;5006;41.828;23.478;2022-08-30T06:36:00;22.30;;;20.07;;